Al Mishash, Saudi Arabia

8:54 PM +03 on March 24, 2017 (GMT +0300)
Al Dawadmi | | Change Station

Elev 3025 ft 24.45 °N, 44.12 °E | Updated 1 hour ago

Clear
Clear
79 °F
Feels Like 79 °F
N
14
Wind Variable Wind from South

Today
High -- | Low -- °F
--% Chance of Precip.
Yesterday
High -- | Low -- °F
Precip. -- in
Pressure 29.83 in
Visibility 6.2 miles
Clouds Scattered Clouds 4000 ft
Mostly Cloudy 10000 ft
Dew Point 41 °F
Humidity 26%
Rainfall 0.00 in
Snow Depth Not available.
6:05 AM 6:18 PM
Waning Crescent, 14% visible
METAR OEDM 241600Z 18012KT 9999 SCT040 BKN100 26/05 Q1010
Pressure 29.83 in
Visibility 6.2 miles
Clouds Scattered Clouds 4000 ft
Mostly Cloudy 10000 ft
Dew Point 41 °F
Humidity 26%
Rainfall 0.00 in
Snow Depth Not available.
6:05 AM 6:18 PM
Waning Crescent, 14% visible
METAR OEDM 241600Z 18012KT 9999 SCT040 BKN100 26/05 Q1010

Get Severe Weather Alerts

Thanks for signing up!

Be on the lookout for a verification email in your inbox.

You'll start receiving the daily forecast at 8 AM.

×

10-Day Weather Forecast

No radar image for this location.
×

Almanac

Astronomy

Mar. 24, 2017 Rise Set
Actual Time
Civil Twilight
Nautical Twilight
Astronomical Twilight
Moon
Length of Visible Light
Length of Day
Tomorrow will be .
, % of the Moon is Illuminated

Today's Extremes

Country Highs Country Lows

Community

WunderPhotos

Upload Photos

1,962,540 photos uploaded!

WunderBlog® & News

Nearby

Air Quality

  Air Quality AQ Index Pollutant
Not available.

Snow Depth

Station Depth Elevation

Earthquake Activity

City Distance Mag. Time & Date
Minimum magnitude displayed is 2.5.

Earthquake Activity

City Distance Mag. Time & Date
Minimum magnitude displayed is 2.5.

Coastal Water Temperatures

Place Temperature

Stations

Nearby Weather Stations

Station Location Temp. Windchill Dew Point Humidity Wind Precip. Elev Updated Type